sensor_id;sensor_type;location;lat;lon;timestamp;pressure;altitude;pressure_sealevel;temperature;humidity
22582;BME280;47125;48.542;9.052;2023-07-30T00:00:26;95706.75;;;19.95;nan
22582;BME280;47125;48.542;9.052;2023-07-30T00:10:29;95704.31;;;20.07;nan
22582;BME280;47125;48.542;9.052;2023-07-30T00:20:34;95695.47;;;20.15;nan
22582;BME280;47125;48.542;9.052;2023-07-30T00:30:37;95703.91;;;20.14;nan
22582;BME280;47125;48.542;9.052;2023-07-30T00:40:41;95700.19;;;20.10;nan
22582;BME280;47125;48.542;9.052;2023-07-30T00:50:44;95723.63;;;19.78;nan
22582;BME280;47125;48.542;9.052;2023-07-30T01:00:48;95730.16;;;19.64;nan
22582;BME280;47125;48.542;9.052;2023-07-30T01:10:50;95737.06;;;19.84;nan
22582;BME280;47125;48.542;9.052;2023-07-30T01:20:55;95738.78;;;19.79;nan
22582;BME280;47125;48.542;9.052;2023-07-30T01:30:59;95729.03;;;19.92;nan
22582;BME280;47125;48.542;9.052;2023-07-30T01:41:05;95738.78;;;19.52;nan
22582;BME280;47125;48.542;9.052;2023-07-30T01:51:07;95730.94;;;19.51;nan
22582;BME280;47125;48.542;9.052;2023-07-30T02:01:11;95740.28;;;19.58;nan
22582;BME280;47125;48.542;9.052;2023-07-30T02:11:14;95733.53;;;19.56;nan
22582;BME280;47125;48.542;9.052;2023-07-30T02:21:17;95723.44;;;19.61;nan
22582;BME280;47125;48.542;9.052;2023-07-30T02:31:20;95728.63;;;19.71;nan
22582;BME280;47125;48.542;9.052;2023-07-30T02:41:24;95738.19;;;19.55;nan
22582;BME280;47125;48.542;9.052;2023-07-30T02:51:27;95733.53;;;19.56;nan
22582;BME280;47125;48.542;9.052;2023-07-30T03:01:31;95734.22;;;19.34;nan
22582;BME280;47125;48.542;9.052;2023-07-30T03:11:33;95743.06;;;19.40;nan
22582;BME280;47125;48.542;9.052;2023-07-30T03:21:37;95735.66;;;19.45;nan
22582;BME280;47125;48.542;9.052;2023-07-30T03:31:42;95736.47;;;19.46;nan
22582;BME280;47125;48.542;9.052;2023-07-30T03:41:46;95738.56;;;19.49;nan
22582;BME280;47125;48.542;9.052;2023-07-30T03:51:48;95758.63;;;19.48;nan
22582;BME280;47125;48.542;9.052;2023-07-30T04:01:52;95758.50;;;19.39;nan
22582;BME280;47125;48.542;9.052;2023-07-30T04:11:55;95762.75;;;19.59;nan
22582;BME280;47125;48.542;9.052;2023-07-30T04:21:59;95778.94;;;19.64;nan
22582;BME280;47125;48.542;9.052;2023-07-30T04:32:01;95792.84;;;19.57;nan
22582;BME280;47125;48.542;9.052;2023-07-30T04:42:06;95798.22;;;19.44;nan
22582;BME280;47125;48.542;9.052;2023-07-30T04:52:08;95794.94;;;19.47;nan
22582;BME280;47125;48.542;9.052;2023-07-30T05:02:12;95793.75;;;19.53;nan
22582;BME280;47125;48.542;9.052;2023-07-30T05:12:15;95821.03;;;19.24;nan
22582;BME280;47125;48.542;9.052;2023-07-30T05:22:19;95827.09;;;19.35;nan
22582;BME280;47125;48.542;9.052;2023-07-30T05:32:21;95830.69;;;19.62;nan
22582;BME280;47125;48.542;9.052;2023-07-30T05:42:25;95832.00;;;19.65;nan
22582;BME280;47125;48.542;9.052;2023-07-30T05:52:28;95841.75;;;19.66;nan
22582;BME280;47125;48.542;9.052;2023-07-30T06:02:32;95818.13;;;19.53;nan
22582;BME280;47125;48.542;9.052;2023-07-30T06:12:34;95839.75;;;19.71;nan
22582;BME280;47125;48.542;9.052;2023-07-30T06:22:38;95826.38;;;19.61;nan
22582;BME280;47125;48.542;9.052;2023-07-30T06:32:41;95833.13;;;19.77;nan
22582;BME280;47125;48.542;9.052;2023-07-30T06:42:45;95844.50;;;19.79;nan
22582;BME280;47125;48.542;9.052;2023-07-30T06:52:47;95853.34;;;19.99;nan
22582;BME280;47125;48.542;9.052;2023-07-30T07:02:51;95865.09;;;20.08;nan
22582;BME280;47125;48.542;9.052;2023-07-30T07:12:54;95884.78;;;20.00;nan
22582;BME280;47125;48.542;9.052;2023-07-30T07:22:58;95889.59;;;20.03;nan
22582;BME280;47125;48.542;9.052;2023-07-30T07:33:00;95910.31;;;19.48;nan
22582;BME280;47125;48.542;9.052;2023-07-30T07:43:04;95908.94;;;19.83;nan
22582;BME280;47125;48.542;9.052;2023-07-30T07:53:07;95916.97;;;19.88;nan
22582;BME280;47125;48.542;9.052;2023-07-30T08:03:11;95913.53;;;19.82;nan
22582;BME280;47125;48.542;9.052;2023-07-30T08:13:14;95907.75;;;20.16;nan
22582;BME280;47125;48.542;9.052;2023-07-30T08:23:18;95902.88;;;20.18;nan
22582;BME280;47125;48.542;9.052;2023-07-30T08:33:20;95897.19;;;20.33;nan
22582;BME280;47125;48.542;9.052;2023-07-30T08:43:24;95897.97;;;20.47;nan
22582;BME280;47125;48.542;9.052;2023-07-30T08:53:27;95918.19;;;20.68;nan
22582;BME280;47125;48.542;9.052;2023-07-30T09:03:31;95921.00;;;20.63;nan
22582;BME280;47125;48.542;9.052;2023-07-30T09:13:37;95913.16;;;20.34;nan
22582;BME280;47125;48.542;9.052;2023-07-30T09:23:41;95918.88;;;20.33;nan
22582;BME280;47125;48.542;9.052;2023-07-30T09:33:44;95945.38;;;19.90;nan
22582;BME280;47125;48.542;9.052;2023-07-30T09:43:48;95967.03;;;19.76;nan
22582;BME280;47125;48.542;9.052;2023-07-30T09:53:51;95973.16;;;20.14;nan
22582;BME280;47125;48.542;9.052;2023-07-30T10:03:56;95985.75;;;19.92;nan
22582;BME280;47125;48.542;9.052;2023-07-30T10:13:58;95994.72;;;20.06;nan
22582;BME280;47125;48.542;9.052;2023-07-30T10:24:03;95985.41;;;20.30;nan
22582;BME280;47125;48.542;9.052;2023-07-30T10:34:06;95998.19;;;20.57;nan
22582;BME280;47125;48.542;9.052;2023-07-30T10:44:18;95990.44;;;20.64;nan
22582;BME280;47125;48.542;9.052;2023-07-30T10:54:21;95991.94;;;20.70;nan
22582;BME280;47125;48.542;9.052;2023-07-30T11:04:25;95981.00;;;21.30;nan
22582;BME280;47125;48.542;9.052;2023-07-30T11:14:27;95992.63;;;21.30;nan
22582;BME280;47125;48.542;9.052;2023-07-30T11:24:34;95983.22;;;21.86;nan
22582;BME280;47125;48.542;9.052;2023-07-30T11:34:37;95994.84;;;21.78;nan
22582;BME280;47125;48.542;9.052;2023-07-30T11:44:42;95980.75;;;22.20;nan
22582;BME280;47125;48.542;9.052;2023-07-30T11:54:45;96009.38;;;22.40;nan
22582;BME280;47125;48.542;9.052;2023-07-30T12:04:49;95991.53;;;22.56;nan
22582;BME280;47125;48.542;9.052;2023-07-30T12:15:09;95987.94;;;23.17;nan
22582;BME280;47125;48.542;9.052;2023-07-30T12:25:13;95995.88;;;23.53;nan
22582;BME280;47125;48.542;9.052;2023-07-30T12:35:15;96006.69;;;22.71;nan
22582;BME280;47125;48.542;9.052;2023-07-30T12:45:19;95983.41;;;22.34;nan
22582;BME280;47125;48.542;9.052;2023-07-30T12:55:22;95995.59;;;22.14;nan
22582;BME280;47125;48.542;9.052;2023-07-30T13:05:26;96012.63;;;23.21;nan
22582;BME280;47125;48.542;9.052;2023-07-30T13:15:29;96029.88;;;22.68;nan
22582;BME280;47125;48.542;9.052;2023-07-30T13:25:33;96035.88;;;22.26;nan
22582;BME280;47125;48.542;9.052;2023-07-30T13:35:35;96030.09;;;22.27;nan
22582;BME280;47125;48.542;9.052;2023-07-30T13:45:39;96037.25;;;22.45;nan
22582;BME280;47125;48.542;9.052;2023-07-30T13:55:42;96057.53;;;22.17;nan
22582;BME280;47125;48.542;9.052;2023-07-30T14:05:45;96041.56;;;23.47;nan
22582;BME280;47125;48.542;9.052;2023-07-30T14:15:48;96046.13;;;23.86;nan
22582;BME280;47125;48.542;9.052;2023-07-30T14:25:52;96060.53;;;23.61;nan
22582;BME280;47125;48.542;9.052;2023-07-30T14:35:55;96072.63;;;24.03;nan
22582;BME280;47125;48.542;9.052;2023-07-30T14:45:59;96077.09;;;23.90;nan
22582;BME280;47125;48.542;9.052;2023-07-30T14:56:01;96093.69;;;24.11;nan
22582;BME280;47125;48.542;9.052;2023-07-30T15:06:06;96077.56;;;23.67;nan
22582;BME280;47125;48.542;9.052;2023-07-30T15:16:09;96090.94;;;24.28;nan
22582;BME280;47125;48.542;9.052;2023-07-30T15:26:13;96085.75;;;24.01;nan
22582;BME280;47125;48.542;9.052;2023-07-30T15:36:16;96081.38;;;23.66;nan
22582;BME280;47125;48.542;9.052;2023-07-30T15:46:20;96102.09;;;23.75;nan
22582;BME280;47125;48.542;9.052;2023-07-30T15:56:24;96096.13;;;23.56;nan
22582;BME280;47125;48.542;9.052;2023-07-30T16:06:28;96095.66;;;23.54;nan
22582;BME280;47125;48.542;9.052;2023-07-30T16:16:30;96092.47;;;22.90;nan
22582;BME280;47125;48.542;9.052;2023-07-30T16:26:34;96105.63;;;22.88;nan
22582;BME280;47125;48.542;9.052;2023-07-30T16:36:37;96111.25;;;22.25;nan
22582;BME280;47125;48.542;9.052;2023-07-30T16:46:41;96113.13;;;22.03;nan
22582;BME280;47125;48.542;9.052;2023-07-30T16:56:44;96126.03;;;21.83;nan
22582;BME280;47125;48.542;9.052;2023-07-30T17:06:48;96128.34;;;21.76;nan
22582;BME280;47125;48.542;9.052;2023-07-30T17:16:51;96144.59;;;21.68;nan
22582;BME280;47125;48.542;9.052;2023-07-30T17:26:55;96147.09;;;21.64;nan
22582;BME280;47125;48.542;9.052;2023-07-30T17:36:57;96151.22;;;21.62;nan
22582;BME280;47125;48.542;9.052;2023-07-30T17:47:01;96162.91;;;21.76;nan
22582;BME280;47125;48.542;9.052;2023-07-30T17:57:04;96159.59;;;21.38;nan
22582;BME280;47125;48.542;9.052;2023-07-30T18:07:08;96160.00;;;21.18;nan
22582;BME280;47125;48.542;9.052;2023-07-30T18:17:10;96166.84;;;20.97;nan
22582;BME280;47125;48.542;9.052;2023-07-30T18:27:14;96180.25;;;21.07;nan
22582;BME280;47125;48.542;9.052;2023-07-30T18:37:17;96178.69;;;20.87;nan
22582;BME280;47125;48.542;9.052;2023-07-30T18:47:21;96172.28;;;20.97;nan
22582;BME280;47125;48.542;9.052;2023-07-30T18:57:25;96174.03;;;20.74;nan
22582;BME280;47125;48.542;9.052;2023-07-30T19:07:29;96185.25;;;20.67;nan
22582;BME280;47125;48.542;9.052;2023-07-30T19:17:32;96184.03;;;20.60;nan
22582;BME280;47125;48.542;9.052;2023-07-30T19:27:36;96181.28;;;20.27;nan
22582;BME280;47125;48.542;9.052;2023-07-30T19:37:39;96178.84;;;20.26;nan
22582;BME280;47125;48.542;9.052;2023-07-30T19:47:43;96175.25;;;20.30;nan
22582;BME280;47125;48.542;9.052;2023-07-30T19:57:45;96189.19;;;20.43;nan
22582;BME280;47125;48.542;9.052;2023-07-30T20:07:49;96187.13;;;20.34;nan
22582;BME280;47125;48.542;9.052;2023-07-30T20:17:52;96184.59;;;20.19;nan
22582;BME280;47125;48.542;9.052;2023-07-30T20:27:56;96185.50;;;20.15;nan
22582;BME280;47125;48.542;9.052;2023-07-30T20:37:58;96182.91;;;20.05;nan
22582;BME280;47125;48.542;9.052;2023-07-30T20:48:03;96187.72;;;19.89;nan
22582;BME280;47125;48.542;9.052;2023-07-30T20:58:06;96176.72;;;19.80;nan
22582;BME280;47125;48.542;9.052;2023-07-30T21:08:10;96191.59;;;19.64;nan
22582;BME280;47125;48.542;9.052;2023-07-30T21:18:13;96192.38;;;19.41;nan
22582;BME280;47125;48.542;9.052;2023-07-30T21:28:17;96196.56;;;19.29;nan
22582;BME280;47125;48.542;9.052;2023-07-30T21:38:20;96191.50;;;19.17;nan
22582;BME280;47125;48.542;9.052;2023-07-30T21:48:24;96184.13;;;18.99;nan
22582;BME280;47125;48.542;9.052;2023-07-30T21:58:26;96201.50;;;18.93;nan
22582;BME280;47125;48.542;9.052;2023-07-30T22:08:31;96195.69;;;18.76;nan
22582;BME280;47125;48.542;9.052;2023-07-30T22:18:33;96200.72;;;18.58;nan
22582;BME280;47125;48.542;9.052;2023-07-30T22:28:37;96184.44;;;18.63;nan
22582;BME280;47125;48.542;9.052;2023-07-30T22:38:40;96179.41;;;18.47;nan
22582;BME280;47125;48.542;9.052;2023-07-30T22:48:43;96173.41;;;18.55;nan
22582;BME280;47125;48.542;9.052;2023-07-30T22:58:46;96178.19;;;18.29;nan
22582;BME280;47125;48.542;9.052;2023-07-30T23:08:50;96177.72;;;18.17;nan
22582;BME280;47125;48.542;9.052;2023-07-30T23:18:52;96178.09;;;18.05;nan
22582;BME280;47125;48.542;9.052;2023-07-30T23:28:56;96185.59;;;18.13;nan
22582;BME280;47125;48.542;9.052;2023-07-30T23:38:59;96161.09;;;17.95;nan
22582;BME280;47125;48.542;9.052;2023-07-30T23:49:03;96160.84;;;17.91;nan
22582;BME280;47125;48.542;9.052;2023-07-30T23:59:07;96157.66;;;17.84;nan
